Main page
METAR-TAF:

METAR-TAF

Airports :

Khorramabad Airport

Khorramabad, Iran

latitude: 33-26-11N, longitude: 048-17-09E, elevation: 1155 m

Current weather observation

The report was made 30 minutes ago, at 04:00 UTC
Calm wind
Temperature 7°C
Humidity 81%
Pressure 1022 hPa
Visibility 10 km or more
Scattered clouds at a height of 4000 ft
Scattered clouds at a height of 9000 ft

METAR: OICK 090400Z 00000KT 9999 SCT040 SCT090 07/04 Q1022

Time: 08:00 (04:30 UTC)


TAF: missing

Weather observations and forecasts of more than 4000 airports (METAR and TAF reports).

The available stations are represented by yellow and red dots on the map.

Hover mouse over dot to see the name of the station.

Then click to see weather observations and forecasts.

To change the map : click on the green buttons with a black cross to zoom in, on the green button with a dash to zoom out, or on the green arrows for adjacent maps.


METAR-TAF: